Página principal
METAR-TAF:

METAR-TAF

Aeroportos :

Aeroporto de Berlim-Tegel

Berlin, Alemanha

latitude: 52-34N, longitude: 013-19E, altura: 37 m

Observação actual do tempo

O boletim foi feito há 32 minutos, às 09:20 UTC
Vento 4 kt com direcção variável
Temperatura 24°C
Humidade 47%
Pressão 1021 hPa
Visibilidade 10 km ou mais
sem nuvens abaixo de 1500 metros e sem cumulonimbus

METAR: EDDT 270920Z VRB04KT CAVOK 24/12 Q1021 NOSIG

Hora: 11:52 (09:52 UTC)

Previsão

O boletim foi feito há 4 horas e 52 minutos, às 05:00 UTC
Previsão válida de 27 às 06 UTC a 28 às 06 UTC
Vento 6 kt de es-nordeste
Visibilidade 10 km ou mais
sem nuvens abaixo de 1500 metros e sem cumulonimbus
Probabilidade 30% :
Temporariamente
de 27 às 12 UTC a 27 às 16 UTC
Vento 15 kt de es-nordeste com rajadas de 25 kt
Visibilidade: 4000 m
Nuvens fragmentadasa uma altura de 4000 ft, Cumulonimbus.
trovoada, chuva

TAF: EDDT 270500Z 2706/2806 07006KT CAVOK PROB30 TEMPO 2712/2716 07015G25KT 4000 TSRA BKN040CB

Observações e previsões do tempo de mais de 4000 aeroportos (mensagens METAR e TAF).

As estações disponíveis são os pontos amarelos e vermelhos sobre o mapa.

Mova o rato sobre o mapa para ver o nome da estação.

Depois clique no ponto para visualizar as observações e previsões meteorológicas.

Para alterar o mapa : clique nos botões verdes com uma cruz preta para aumentar o zoom; no botão verde com uma pitada de zoom; ou nas setas verdes para mapas adjacentes.


METAR-TAF: